Terminal Aerodrome Forecast
Issued by NWS

Home | Current Version | Previous Version | Text Only | Print | Product List | Glossary On
Versions: 1 2 3 4 5 6 7 8 9 10 11 12
000
FTUS41 KBTV 011732
TAFPBG
TAF
KPBG 011732Z 0118/0218 14006KT 6SM -RA BR OVC035
     FM012200 12006KT 3SM -SHRA BR SCT020 OVC030
     FM020100 15006KT 3SM -SHRA BR OVC020
     FM021700 07004KT 3SM -SHRA BR OVC010=

USA.gov is the U.S. government's official web portal to all federal, state and local government web resources and services.